createdAt,value
2017-12-31T00:00:13.352Z,10.10
2017-12-31T00:02:40.818Z,10.20
2017-12-31T00:05:08.486Z,10.20
2017-12-31T00:07:35.948Z,10.20
2017-12-31T00:10:03.400Z,10.30
2017-12-31T00:12:30.897Z,10.30
2017-12-31T00:14:58.306Z,10.40
2017-12-31T00:17:25.760Z,10.50
2017-12-31T00:19:53.228Z,10.50
2017-12-31T00:22:20.711Z,10.60
2017-12-31T00:24:48.163Z,10.60
2017-12-31T00:27:15.627Z,10.70
2017-12-31T00:29:43.083Z,10.70
2017-12-31T00:32:10.530Z,10.80
2017-12-31T00:34:37.989Z,10.80
2017-12-31T00:37:05.437Z,10.80
2017-12-31T00:39:32.916Z,10.90
2017-12-31T00:42:00.351Z,10.90
2017-12-31T00:44:28.560Z,11.00
2017-12-31T00:46:56.785Z,11.00
2017-12-31T00:49:24.203Z,10.90
2017-12-31T00:51:51.654Z,11.00
2017-12-31T00:54:19.096Z,11.00
2017-12-31T00:56:46.539Z,11.00
2017-12-31T00:59:13.976Z,11.10
2017-12-31T01:01:41.435Z,11.10
2017-12-31T01:04:08.892Z,11.10
2017-12-31T01:06:36.389Z,11.20
2017-12-31T01:09:03.836Z,11.20
2017-12-31T01:11:31.331Z,11.20
2017-12-31T01:13:58.769Z,11.20
2017-12-31T01:16:26.220Z,11.20
2017-12-31T01:18:53.664Z,11.30
2017-12-31T01:21:21.147Z,11.30
2017-12-31T01:23:48.599Z,11.30
2017-12-31T01:26:16.032Z,11.30
2017-12-31T01:28:43.479Z,11.30
2017-12-31T01:31:10.935Z,11.30
2017-12-31T01:33:38.428Z,11.30
2017-12-31T01:36:05.879Z,11.30
2017-12-31T01:38:33.315Z,11.30
2017-12-31T01:41:00.772Z,11.30
2017-12-31T01:43:28.219Z,11.30
2017-12-31T01:45:55.675Z,11.30
2017-12-31T01:48:23.116Z,11.30
2017-12-31T01:50:50.599Z,11.40
2017-12-31T01:53:18.039Z,11.30
2017-12-31T01:55:45.499Z,11.30
2017-12-31T01:58:12.944Z,11.30
2017-12-31T02:00:40.403Z,11.30
2017-12-31T02:03:07.867Z,11.30
2017-12-31T02:05:35.309Z,11.30
2017-12-31T02:08:02.751Z,11.30
2017-12-31T02:10:30.192Z,11.30
2017-12-31T02:12:58.394Z,11.40
2017-12-31T02:15:25.850Z,11.30
2017-12-31T02:17:53.317Z,11.40
2017-12-31T02:20:20.771Z,11.40
2017-12-31T02:22:48.280Z,11.40
2017-12-31T02:25:15.704Z,11.50
2017-12-31T02:27:43.156Z,11.50
2017-12-31T02:30:10.600Z,11.40
2017-12-31T02:32:38.072Z,11.40
2017-12-31T02:35:05.508Z,11.40
2017-12-31T02:37:32.944Z,11.40
2017-12-31T02:40:00.407Z,11.40
2017-12-31T02:42:27.835Z,11.40
2017-12-31T02:44:55.285Z,11.40
2017-12-31T02:47:22.713Z,11.40
2017-12-31T02:49:50.173Z,11.40
2017-12-31T02:52:17.613Z,11.40
2017-12-31T02:54:45.075Z,11.40
2017-12-31T02:57:12.539Z,11.30
2017-12-31T02:59:39.989Z,11.30
2017-12-31T03:02:07.447Z,11.20
2017-12-31T03:04:34.893Z,11.20
2017-12-31T03:07:02.360Z,11.20
2017-12-31T03:09:29.820Z,11.10
2017-12-31T03:11:57.275Z,11.00
2017-12-31T03:14:24.744Z,11.00
2017-12-31T03:16:52.192Z,10.90
2017-12-31T03:19:19.647Z,10.90
2017-12-31T03:21:47.106Z,10.90
2017-12-31T03:24:14.632Z,10.90
2017-12-31T03:26:42.065Z,10.90
2017-12-31T03:29:09.508Z,10.80
2017-12-31T03:31:36.944Z,10.80
2017-12-31T03:34:04.393Z,10.80
2017-12-31T03:36:31.849Z,10.80
2017-12-31T03:38:59.305Z,10.80
2017-12-31T03:41:26.764Z,10.70
2017-12-31T03:43:54.227Z,10.70
2017-12-31T03:46:21.744Z,10.70
2017-12-31T03:48:49.171Z,10.60
2017-12-31T03:51:16.626Z,10.70
2017-12-31T03:53:44.071Z,10.70
2017-12-31T03:56:11.528Z,10.60
2017-12-31T03:58:38.962Z,10.60
2017-12-31T04:01:06.421Z,10.60
2017-12-31T04:03:33.854Z,10.60
2017-12-31T04:06:01.296Z,10.60
2017-12-31T04:08:29.521Z,10.80
2017-12-31T04:10:56.961Z,10.70
2017-12-31T04:13:24.418Z,10.80
2017-12-31T04:15:51.867Z,10.80
2017-12-31T04:18:19.319Z,10.90
2017-12-31T04:20:46.795Z,10.90
2017-12-31T04:23:14.235Z,11.00
2017-12-31T04:25:41.699Z,11.10
2017-12-31T04:28:09.155Z,11.10
2017-12-31T04:30:36.597Z,11.20
2017-12-31T04:33:04.077Z,11.20
2017-12-31T04:35:31.504Z,11.20
2017-12-31T04:37:58.949Z,11.30
2017-12-31T04:40:26.401Z,11.30
2017-12-31T04:42:53.847Z,11.30
2017-12-31T04:45:21.286Z,11.30
2017-12-31T04:47:48.739Z,11.20
2017-12-31T04:50:17.788Z,11.20
2017-12-31T04:52:45.219Z,11.30
2017-12-31T04:55:12.656Z,11.30
2017-12-31T04:57:40.108Z,11.30
2017-12-31T05:00:07.563Z,11.30
2017-12-31T05:02:34.985Z,11.30
2017-12-31T05:05:02.459Z,11.30
2017-12-31T05:07:29.899Z,11.30
2017-12-31T05:09:57.356Z,11.40
2017-12-31T05:12:24.901Z,11.40
2017-12-31T05:14:52.441Z,11.40
2017-12-31T05:17:20.656Z,11.40
2017-12-31T05:19:48.121Z,11.40
2017-12-31T05:22:15.564Z,11.50
2017-12-31T05:24:43.000Z,11.50
2017-12-31T05:27:11.227Z,11.60
2017-12-31T05:29:38.675Z,11.50
2017-12-31T05:32:06.116Z,11.60
2017-12-31T05:34:33.568Z,11.60
2017-12-31T05:37:01.015Z,11.60
2017-12-31T05:39:28.463Z,11.60
2017-12-31T05:41:56.660Z,11.60
2017-12-31T05:44:24.136Z,11.50
2017-12-31T05:46:51.570Z,11.60
2017-12-31T05:49:19.035Z,11.60
2017-12-31T05:51:46.475Z,11.70
2017-12-31T05:54:14.063Z,11.60
2017-12-31T05:56:41.583Z,11.60
2017-12-31T05:59:09.801Z,11.70
2017-12-31T06:01:37.246Z,11.60
2017-12-31T06:04:04.700Z,11.70
2017-12-31T06:06:32.147Z,11.70
2017-12-31T06:08:59.592Z,11.70
2017-12-31T06:11:27.184Z,11.70
2017-12-31T06:13:54.604Z,11.70
2017-12-31T06:16:22.811Z,11.70
2017-12-31T06:18:50.268Z,11.70
2017-12-31T06:21:17.725Z,11.70
2017-12-31T06:23:45.188Z,11.70
2017-12-31T06:26:12.629Z,11.80
2017-12-31T06:28:40.103Z,11.80
2017-12-31T06:31:07.554Z,11.70
2017-12-31T06:33:35.017Z,11.70
2017-12-31T06:36:02.451Z,11.70
2017-12-31T06:38:29.932Z,11.80
2017-12-31T06:40:57.367Z,11.70
2017-12-31T06:43:24.845Z,11.70
2017-12-31T06:45:52.292Z,11.70
2017-12-31T06:48:19.759Z,11.70
2017-12-31T06:50:47.178Z,11.70
2017-12-31T06:53:14.621Z,11.70
2017-12-31T06:55:42.060Z,11.70
2017-12-31T06:58:09.516Z,11.60
2017-12-31T07:00:36.957Z,11.60
2017-12-31T07:03:04.484Z,11.60
2017-12-31T07:05:31.940Z,11.60
2017-12-31T07:07:59.405Z,11.60
2017-12-31T07:10:26.855Z,11.50
2017-12-31T07:12:54.300Z,11.50
2017-12-31T07:15:21.746Z,11.50
2017-12-31T07:17:49.247Z,11.40
2017-12-31T07:20:16.659Z,11.30
2017-12-31T07:22:44.868Z,11.20
2017-12-31T07:25:13.728Z,11.20
2017-12-31T07:27:41.181Z,11.30
2017-12-31T07:30:08.604Z,11.20
2017-12-31T07:32:36.047Z,11.20
2017-12-31T07:35:03.476Z,11.10
2017-12-31T07:37:30.940Z,11.10
2017-12-31T07:39:58.394Z,11.00
2017-12-31T07:42:25.848Z,11.10
2017-12-31T07:44:53.318Z,11.00
2017-12-31T07:47:21.523Z,11.10
2017-12-31T07:49:48.988Z,11.00
2017-12-31T07:52:16.445Z,11.20
2017-12-31T07:54:43.907Z,11.20
2017-12-31T07:57:11.360Z,11.30
2017-12-31T07:59:38.837Z,11.30
2017-12-31T08:02:06.299Z,11.30
2017-12-31T08:04:34.524Z,11.30
2017-12-31T08:07:01.959Z,11.20
2017-12-31T08:09:29.531Z,11.30
2017-12-31T08:11:56.964Z,11.30
2017-12-31T08:14:24.412Z,11.40
2017-12-31T08:16:51.876Z,11.40
2017-12-31T08:19:19.366Z,11.40
2017-12-31T08:21:46.784Z,11.40
2017-12-31T08:24:14.244Z,11.30
2017-12-31T08:26:41.696Z,11.30
2017-12-31T08:29:09.155Z,11.30
2017-12-31T08:31:36.620Z,11.30
2017-12-31T08:34:04.052Z,11.20
2017-12-31T08:36:31.565Z,11.30
2017-12-31T08:38:59.003Z,11.20
2017-12-31T08:41:26.437Z,11.30
2017-12-31T08:43:53.896Z,11.30
2017-12-31T08:46:21.340Z,11.30
2017-12-31T08:48:48.803Z,11.30
2017-12-31T08:51:16.268Z,11.40
2017-12-31T08:53:43.735Z,11.30
2017-12-31T08:56:11.183Z,11.40
2017-12-31T08:58:38.639Z,11.40
2017-12-31T09:01:06.076Z,11.40
2017-12-31T09:03:33.540Z,11.40
2017-12-31T09:06:00.994Z,11.50
2017-12-31T09:08:28.445Z,11.50
2017-12-31T09:10:55.904Z,11.50
2017-12-31T09:13:23.380Z,11.50
2017-12-31T09:15:50.814Z,11.50
2017-12-31T09:18:18.315Z,11.50
2017-12-31T09:20:45.742Z,11.60
2017-12-31T09:23:13.394Z,11.60
2017-12-31T09:25:40.841Z,11.50
2017-12-31T09:28:08.305Z,11.60
2017-12-31T09:30:35.771Z,11.60
2017-12-31T09:33:03.232Z,11.60
2017-12-31T09:35:30.689Z,11.70
2017-12-31T09:37:58.286Z,11.70
2017-12-31T09:40:25.720Z,11.70
2017-12-31T09:42:53.173Z,11.80
2017-12-31T09:45:20.627Z,11.80
2017-12-31T09:47:48.088Z,11.90
2017-12-31T09:50:15.528Z,11.90
2017-12-31T09:52:42.991Z,11.90
2017-12-31T09:55:10.447Z,12.00
2017-12-31T09:57:37.912Z,12.20
2017-12-31T10:00:05.369Z,12.30
2017-12-31T10:02:33.583Z,12.70
2017-12-31T10:05:01.007Z,12.60
2017-12-31T10:07:28.458Z,13.00
2017-12-31T10:09:55.904Z,13.30
2017-12-31T10:12:23.359Z,13.90
2017-12-31T10:14:50.986Z,15.10
2017-12-31T10:17:18.416Z,16.40
2017-12-31T10:19:45.847Z,18.00
2017-12-31T10:22:14.277Z,19.80
2017-12-31T10:24:41.688Z,19.70
2017-12-31T10:27:09.932Z,20.90
2017-12-31T10:29:37.385Z,20.90
2017-12-31T10:32:04.820Z,21.40
2017-12-31T10:34:32.277Z,21.50
2017-12-31T10:36:59.725Z,21.50
2017-12-31T10:39:27.155Z,21.40
2017-12-31T10:41:54.590Z,21.50
2017-12-31T10:44:22.071Z,21.80
2017-12-31T10:46:50.290Z,22.00
2017-12-31T10:49:17.716Z,21.90
2017-12-31T10:51:45.158Z,21.90
2017-12-31T10:54:12.603Z,21.40
2017-12-31T10:56:40.047Z,22.00
2017-12-31T10:59:07.488Z,22.90
2017-12-31T11:01:34.964Z,23.50
2017-12-31T11:04:02.392Z,23.70
2017-12-31T11:06:29.864Z,23.80
2017-12-31T11:08:57.319Z,24.00
2017-12-31T11:11:24.790Z,24.20
2017-12-31T11:13:52.226Z,24.00
2017-12-31T11:16:19.683Z,24.20
2017-12-31T11:18:47.138Z,24.60
2017-12-31T11:21:14.607Z,25.00
2017-12-31T11:23:42.068Z,25.40
2017-12-31T11:26:09.524Z,25.60
2017-12-31T11:28:36.963Z,25.30
2017-12-31T11:31:04.433Z,25.30
2017-12-31T11:33:31.896Z,25.40
2017-12-31T11:35:59.339Z,25.40
2017-12-31T11:38:26.795Z,25.00
2017-12-31T11:40:54.254Z,24.30
2017-12-31T11:43:21.708Z,24.30
2017-12-31T11:45:49.165Z,24.80
2017-12-31T11:48:16.643Z,24.20
2017-12-31T11:50:44.120Z,24.30
2017-12-31T11:53:11.571Z,23.70
2017-12-31T11:55:39.016Z,23.40
2017-12-31T11:58:06.648Z,23.50
2017-12-31T12:00:34.105Z,24.10
2017-12-31T12:03:01.560Z,24.80
2017-12-31T12:05:28.984Z,25.50
2017-12-31T12:07:57.192Z,25.60
2017-12-31T12:10:24.648Z,25.50
2017-12-31T12:12:52.113Z,26.00
2017-12-31T12:15:19.565Z,26.60
2017-12-31T12:17:47.027Z,26.90
2017-12-31T12:20:15.362Z,27.10
2017-12-31T12:22:42.779Z,27.00
2017-12-31T12:25:10.240Z,26.90
2017-12-31T12:27:37.709Z,26.10
2017-12-31T12:30:05.134Z,26.10
2017-12-31T12:32:32.888Z,26.20
2017-12-31T12:35:00.293Z,26.10
2017-12-31T12:37:27.725Z,26.20
2017-12-31T12:39:55.182Z,26.00
2017-12-31T12:42:22.625Z,25.50
2017-12-31T12:44:50.180Z,24.70
2017-12-31T12:47:17.636Z,23.70
2017-12-31T12:49:45.085Z,22.60
2017-12-31T12:52:12.557Z,22.20
2017-12-31T12:54:40.001Z,22.10
2017-12-31T12:57:07.445Z,22.60
2017-12-31T12:59:34.896Z,23.00
2017-12-31T13:02:03.108Z,24.30
2017-12-31T13:04:30.557Z,24.20
2017-12-31T13:06:58.215Z,24.80
2017-12-31T13:09:25.645Z,24.80
2017-12-31T13:11:53.084Z,24.50
2017-12-31T13:14:21.300Z,24.70
2017-12-31T13:16:48.743Z,24.60
2017-12-31T13:19:16.178Z,25.20
2017-12-31T13:21:44.381Z,25.80
2017-12-31T13:24:11.873Z,25.70
2017-12-31T13:26:39.282Z,25.40
2017-12-31T13:29:06.729Z,24.50
2017-12-31T13:31:34.156Z,23.10
2017-12-31T13:34:01.591Z,21.60
2017-12-31T13:36:29.061Z,20.30
2017-12-31T13:38:56.492Z,19.30
2017-12-31T13:41:23.957Z,18.40
2017-12-31T13:43:51.400Z,17.70
2017-12-31T13:46:18.859Z,17.10
2017-12-31T13:48:46.516Z,16.70
2017-12-31T13:51:13.940Z,16.20
2017-12-31T13:53:42.160Z,15.60
2017-12-31T13:56:09.603Z,15.50
2017-12-31T13:58:37.052Z,15.30
2017-12-31T14:01:04.525Z,15.10
2017-12-31T14:03:31.964Z,15.00
2017-12-31T14:05:59.421Z,14.80
2017-12-31T14:08:26.859Z,14.70
2017-12-31T14:10:54.310Z,14.60
2017-12-31T14:13:21.738Z,14.50
2017-12-31T14:15:49.468Z,14.40
2017-12-31T14:18:16.884Z,14.30
2017-12-31T14:20:45.109Z,14.10
2017-12-31T14:23:12.574Z,14.00
2017-12-31T14:25:40.016Z,14.10
2017-12-31T14:28:07.475Z,14.00
2017-12-31T14:30:34.926Z,13.90
2017-12-31T14:33:02.404Z,13.90
2017-12-31T14:35:29.847Z,13.80
2017-12-31T14:37:57.315Z,13.70
2017-12-31T14:40:24.962Z,13.60
2017-12-31T14:42:52.402Z,13.60
2017-12-31T14:45:20.005Z,13.40
2017-12-31T14:47:47.640Z,13.40
2017-12-31T14:50:15.084Z,13.30
2017-12-31T14:52:42.540Z,13.30
2017-12-31T14:55:09.972Z,13.30
2017-12-31T14:57:38.192Z,13.40
2017-12-31T15:00:05.692Z,13.00
2017-12-31T15:02:33.127Z,13.10
2017-12-31T15:05:00.595Z,13.00
2017-12-31T15:07:28.045Z,12.90
2017-12-31T15:09:55.488Z,12.90
2017-12-31T15:12:22.951Z,12.80
2017-12-31T15:14:50.415Z,12.80
2017-12-31T15:17:17.878Z,12.80
2017-12-31T15:19:45.324Z,12.70
2017-12-31T15:22:12.790Z,12.60
2017-12-31T15:24:40.220Z,12.60
2017-12-31T15:27:07.682Z,12.50
2017-12-31T15:29:35.128Z,12.40
2017-12-31T15:32:02.611Z,12.30
2017-12-31T15:34:30.249Z,12.20
2017-12-31T15:36:57.680Z,12.20
2017-12-31T15:39:25.117Z,12.10
2017-12-31T15:41:53.323Z,12.00
2017-12-31T15:44:20.776Z,11.90
2017-12-31T15:46:48.206Z,11.90
2017-12-31T15:49:16.424Z,11.80
2017-12-31T15:51:44.118Z,11.70
2017-12-31T15:54:11.546Z,11.80
2017-12-31T15:56:39.016Z,11.70
2017-12-31T15:59:06.464Z,11.60
2017-12-31T16:01:33.931Z,11.60
2017-12-31T16:04:01.373Z,11.50
2017-12-31T16:06:28.813Z,11.50
2017-12-31T16:08:56.287Z,11.50
2017-12-31T16:11:23.741Z,11.40
2017-12-31T16:13:51.195Z,11.30
2017-12-31T16:16:18.628Z,11.20
2017-12-31T16:18:46.080Z,11.20
2017-12-31T16:21:13.547Z,11.10
2017-12-31T16:23:40.976Z,11.00
2017-12-31T16:26:08.446Z,11.00
2017-12-31T16:28:35.876Z,10.90
2017-12-31T16:31:03.327Z,10.90
2017-12-31T16:33:30.772Z,10.80
2017-12-31T16:35:58.233Z,10.70
2017-12-31T16:38:25.692Z,10.70
2017-12-31T16:40:53.136Z,10.60
2017-12-31T16:43:20.593Z,10.50
2017-12-31T16:45:48.053Z,10.50
2017-12-31T16:48:15.805Z,10.40
2017-12-31T16:50:43.230Z,10.40
2017-12-31T16:53:11.436Z,10.30
2017-12-31T16:55:38.898Z,10.20
2017-12-31T16:58:06.337Z,10.20
2017-12-31T17:00:33.804Z,10.10
2017-12-31T17:03:01.256Z,10.10
2017-12-31T17:05:28.720Z,10.10
2017-12-31T17:07:56.189Z,10.00
2017-12-31T17:10:23.846Z,10.00
2017-12-31T17:12:51.288Z,9.90
2017-12-31T17:15:18.740Z,9.80
2017-12-31T17:17:46.287Z,9.80
2017-12-31T17:20:13.733Z,9.70
2017-12-31T17:22:41.931Z,9.70
2017-12-31T17:25:09.380Z,9.60
2017-12-31T17:27:36.847Z,9.60
2017-12-31T17:30:04.328Z,9.60
2017-12-31T17:32:31.784Z,9.50
2017-12-31T17:34:59.235Z,9.40
2017-12-31T17:37:26.677Z,9.40
2017-12-31T17:39:55.902Z,9.40
2017-12-31T17:42:23.336Z,9.30
2017-12-31T17:44:50.771Z,9.30
2017-12-31T17:47:18.231Z,9.20
2017-12-31T17:49:45.684Z,9.20
2017-12-31T17:52:13.127Z,9.20
2017-12-31T17:54:40.591Z,9.10
2017-12-31T17:57:08.050Z,9.00
2017-12-31T17:59:35.498Z,9.00
2017-12-31T18:02:02.993Z,8.90
2017-12-31T18:04:30.431Z,8.90
2017-12-31T18:06:57.920Z,8.80
2017-12-31T18:09:25.386Z,8.80
2017-12-31T18:11:52.812Z,8.70
2017-12-31T18:14:20.262Z,8.60
2017-12-31T18:16:47.716Z,8.50
2017-12-31T18:19:15.155Z,8.40
2017-12-31T18:21:42.613Z,8.40
2017-12-31T18:24:10.075Z,8.30
2017-12-31T18:26:37.556Z,8.30
2017-12-31T18:29:05.010Z,8.30
2017-12-31T18:31:32.444Z,8.20
2017-12-31T18:34:00.665Z,8.10
2017-12-31T18:36:28.116Z,8.00
2017-12-31T18:38:55.604Z,8.10
2017-12-31T18:41:23.065Z,8.10
2017-12-31T18:43:50.519Z,8.00
2017-12-31T18:46:18.116Z,8.00
2017-12-31T18:48:45.588Z,7.90
2017-12-31T18:51:13.067Z,7.80
2017-12-31T18:53:40.500Z,7.80
2017-12-31T18:56:07.956Z,7.70
2017-12-31T18:58:35.411Z,7.70
2017-12-31T19:01:03.619Z,7.60
2017-12-31T19:03:31.091Z,7.50
2017-12-31T19:05:58.587Z,7.60
2017-12-31T19:08:26.791Z,7.60
2017-12-31T19:10:54.234Z,7.50
2017-12-31T19:13:21.719Z,7.50
2017-12-31T19:15:49.181Z,7.50
2017-12-31T19:18:16.648Z,7.50
2017-12-31T19:20:44.091Z,7.50
2017-12-31T19:23:11.555Z,7.50
2017-12-31T19:25:38.984Z,7.40
2017-12-31T19:28:06.446Z,7.40
2017-12-31T19:30:33.879Z,7.40
2017-12-31T19:33:01.327Z,7.40
2017-12-31T19:35:28.784Z,7.40
2017-12-31T19:37:56.240Z,7.40
2017-12-31T19:40:23.703Z,7.30
2017-12-31T19:42:51.174Z,7.30
2017-12-31T19:45:18.630Z,7.30
2017-12-31T19:47:46.071Z,7.30
2017-12-31T19:50:13.522Z,7.30
2017-12-31T19:52:41.024Z,7.30
2017-12-31T19:55:08.483Z,7.30
2017-12-31T19:57:35.921Z,7.30
2017-12-31T20:00:03.428Z,7.30
2017-12-31T20:02:30.864Z,7.30
2017-12-31T20:04:58.321Z,7.20
2017-12-31T20:07:25.767Z,7.20
2017-12-31T20:09:53.211Z,7.20
2017-12-31T20:12:20.657Z,7.20
2017-12-31T20:14:48.133Z,7.20
2017-12-31T20:17:15.572Z,7.10
2017-12-31T20:19:43.032Z,7.10
2017-12-31T20:22:10.485Z,7.10
2017-12-31T20:24:37.985Z,7.00
2017-12-31T20:27:05.419Z,7.00
2017-12-31T20:29:32.880Z,7.00
2017-12-31T20:32:00.352Z,7.00
2017-12-31T20:34:27.791Z,6.90
2017-12-31T20:36:55.232Z,6.90
2017-12-31T20:39:22.692Z,6.90
2017-12-31T20:41:50.961Z,6.80
2017-12-31T20:44:19.218Z,6.80
2017-12-31T20:46:46.670Z,6.70
2017-12-31T20:49:14.121Z,6.80
2017-12-31T20:51:41.594Z,6.80
2017-12-31T20:54:09.038Z,6.80
2017-12-31T20:56:36.470Z,6.80
2017-12-31T20:59:03.924Z,6.80
2017-12-31T21:01:31.404Z,6.80
2017-12-31T21:03:58.860Z,6.80
2017-12-31T21:06:26.319Z,6.80
2017-12-31T21:08:53.776Z,6.70
2017-12-31T21:11:21.208Z,6.70
2017-12-31T21:13:48.675Z,6.70
2017-12-31T21:16:16.117Z,6.70
2017-12-31T21:18:43.565Z,6.70
2017-12-31T21:21:11.062Z,6.70
2017-12-31T21:23:38.501Z,6.70
2017-12-31T21:26:05.931Z,6.70
2017-12-31T21:28:33.387Z,6.70
2017-12-31T21:31:00.824Z,6.70
2017-12-31T21:33:28.287Z,6.70
2017-12-31T21:35:55.726Z,6.70
2017-12-31T21:38:23.164Z,6.70
2017-12-31T21:40:50.667Z,6.60
2017-12-31T21:43:18.111Z,6.50
2017-12-31T21:45:45.567Z,6.50
2017-12-31T21:48:12.993Z,6.40
2017-12-31T21:50:40.443Z,6.40
2017-12-31T21:53:07.904Z,6.40
2017-12-31T21:55:35.346Z,6.40
2017-12-31T21:58:02.808Z,6.40
2017-12-31T22:00:30.273Z,6.40
2017-12-31T22:02:57.768Z,6.40
2017-12-31T22:05:25.218Z,6.40
2017-12-31T22:07:52.651Z,6.40
2017-12-31T22:10:20.115Z,6.40
2017-12-31T22:12:47.572Z,6.30
2017-12-31T22:15:15.021Z,6.30
2017-12-31T22:17:42.489Z,6.30
2017-12-31T22:20:09.963Z,6.30
2017-12-31T22:22:38.192Z,6.30
2017-12-31T22:25:05.829Z,6.20
2017-12-31T22:27:33.292Z,6.30
2017-12-31T22:30:00.749Z,6.30
2017-12-31T22:32:28.173Z,6.30
2017-12-31T22:34:55.609Z,6.30
2017-12-31T22:37:23.069Z,6.30
2017-12-31T22:39:50.546Z,6.30
2017-12-31T22:42:18.006Z,6.30
2017-12-31T22:44:46.219Z,6.20
2017-12-31T22:47:13.880Z,6.20
2017-12-31T22:49:41.337Z,6.10
2017-12-31T22:52:08.776Z,6.10
2017-12-31T22:54:36.232Z,6.10
2017-12-31T22:57:03.692Z,6.10
2017-12-31T22:59:31.136Z,6.10
2017-12-31T23:01:58.610Z,6.00
2017-12-31T23:04:26.081Z,6.00
2017-12-31T23:06:53.532Z,6.00
2017-12-31T23:09:20.996Z,6.00
2017-12-31T23:11:48.442Z,6.00
2017-12-31T23:14:15.928Z,6.00
2017-12-31T23:16:43.402Z,5.90
2017-12-31T23:19:10.860Z,5.90
2017-12-31T23:21:38.349Z,5.90
2017-12-31T23:24:05.771Z,5.90
2017-12-31T23:26:33.227Z,5.90
2017-12-31T23:29:00.681Z,5.90
2017-12-31T23:31:28.152Z,5.80
2017-12-31T23:33:55.613Z,5.80
2017-12-31T23:36:23.056Z,5.70
2017-12-31T23:38:50.516Z,5.70
2017-12-31T23:41:18.017Z,5.70
2017-12-31T23:43:45.457Z,5.70
2017-12-31T23:46:12.880Z,5.80
2017-12-31T23:48:40.344Z,5.80
2017-12-31T23:51:07.793Z,5.80
2017-12-31T23:53:35.261Z,5.90
2017-12-31T23:56:02.704Z,5.90
2017-12-31T23:58:30.344Z,6.00
